Terminal Aerodrome Forecast
Issued by NWS Paducah, KY

Home | Current Version | Previous Version | Text Only | Print | Product List | Glossary On
Versions: 1 2 3 4 5 6 7 8 9 10 11 12 13 14 15 16 17 18 19 20 21 22 23 24
159
FTUS43 KPAH 231813 AAA
TAFPAH
TAF AMD
KPAH 231813Z 2318/2418 14010KT P6SM -SHRA VCTS SCT012CB BKN030
      TEMPO 2318/2321 4SM SHRA BKN012
     FM232100 12004KT P6SM VCSH BKN035
     FM240500 35003KT 6SM BR SCT008 OVC030
     FM240800 36004KT 5SM BR OVC008
     FM241000 34004KT 3SM BR OVC003
     FM241300 34010KT P6SM OVC008=

USA.gov is the U.S. government's official web portal to all federal, state and local government web resources and services.